createdAt,value
2019-02-15T00:00:01.080Z,15
2019-02-15T00:02:01.104Z,14
2019-02-15T00:03:01.084Z,15
2019-02-15T00:04:01.082Z,14
2019-02-15T00:05:01.080Z,16
2019-02-15T00:07:01.112Z,18
2019-02-15T00:08:01.083Z,17
2019-02-15T00:13:01.109Z,18
2019-02-15T00:15:01.086Z,18
2019-02-15T00:16:01.085Z,19
2019-02-15T00:17:01.082Z,17
2019-02-15T00:18:01.107Z,16
2019-02-15T00:20:01.083Z,15
2019-02-15T00:21:01.082Z,14
2019-02-15T00:23:01.115Z,15
2019-02-15T00:26:01.130Z,16
2019-02-15T00:28:01.085Z,15
2019-02-15T00:29:01.084Z,16
2019-02-15T00:30:01.089Z,14
2019-02-15T00:31:01.093Z,16
2019-02-15T00:32:02.022Z,17
2019-02-15T00:35:01.089Z,19
2019-02-15T00:36:01.087Z,17
2019-02-15T00:37:01.094Z,16
2019-02-15T00:38:01.116Z,17
2019-02-15T00:39:01.088Z,18
2019-02-15T00:40:01.089Z,15
2019-02-15T00:41:01.088Z,17
2019-02-15T00:42:01.094Z,16
2019-02-15T00:43:01.083Z,17
2019-02-15T00:44:01.088Z,16
2019-02-15T00:45:01.063Z,16
2019-02-15T00:46:01.088Z,17
2019-02-15T00:47:01.089Z,16
2019-02-15T00:48:01.118Z,15
2019-02-15T00:50:01.095Z,17
2019-02-15T00:51:01.089Z,15
2019-02-15T00:52:01.093Z,18
2019-02-15T00:53:01.116Z,19
2019-02-15T00:54:01.090Z,20
2019-02-15T00:55:01.100Z,19
2019-02-15T00:56:03.066Z,20
2019-02-15T00:57:01.101Z,21
2019-02-15T00:58:01.091Z,20
2019-02-15T01:00:01.099Z,21
2019-02-15T01:01:01.129Z,19
2019-02-15T01:02:01.093Z,17
2019-02-15T01:03:01.095Z,16
2019-02-15T01:04:01.091Z,15
2019-02-15T01:05:01.094Z,14
2019-02-15T01:06:01.090Z,16
2019-02-15T01:11:01.117Z,15
2019-02-15T01:13:01.118Z,17
2019-02-15T01:15:01.116Z,17
2019-02-15T01:17:01.124Z,15
2019-02-15T01:18:01.093Z,13
2019-02-15T01:21:01.092Z,14
2019-02-15T01:22:01.118Z,16
2019-02-15T01:23:01.094Z,17
2019-02-15T01:24:01.093Z,16
2019-02-15T01:26:01.096Z,17
2019-02-15T01:28:02.073Z,16
2019-02-15T01:29:01.092Z,15
2019-02-15T01:30:01.125Z,16
2019-02-15T01:31:01.094Z,13
2019-02-15T01:32:01.124Z,15
2019-02-15T01:33:01.097Z,17
2019-02-15T01:34:01.099Z,20
2019-02-15T01:35:01.095Z,16
2019-02-15T01:36:01.095Z,18
2019-02-15T01:37:01.128Z,17
2019-02-15T01:38:01.094Z,16
2019-02-15T01:39:01.095Z,14
2019-02-15T01:40:01.099Z,15
2019-02-15T01:43:01.074Z,14
2019-02-15T01:44:01.089Z,13
2019-02-15T01:45:01.081Z,14
2019-02-15T01:46:01.109Z,15
2019-02-15T01:47:01.100Z,16
2019-02-15T01:49:01.081Z,17
2019-02-15T01:50:01.091Z,16
2019-02-15T01:52:01.105Z,17
2019-02-15T01:54:01.113Z,18
2019-02-15T01:55:01.083Z,20
2019-02-15T01:56:01.081Z,21
2019-02-15T01:57:01.841Z,18
2019-02-15T02:00:01.085Z,17
2019-02-15T02:03:01.099Z,18
2019-02-15T02:04:01.081Z,17
2019-02-15T02:05:01.081Z,18
2019-02-15T02:08:01.080Z,19
2019-02-15T02:09:01.079Z,20
2019-02-15T02:10:01.112Z,19
2019-02-15T02:11:01.082Z,20
2019-02-15T02:12:01.085Z,21
2019-02-15T02:13:01.080Z,19
2019-02-15T02:14:01.081Z,18
2019-02-15T02:15:01.081Z,18
2019-02-15T02:16:01.081Z,16
2019-02-15T02:18:01.080Z,17
2019-02-15T02:20:01.090Z,16
2019-02-15T02:21:01.112Z,17
2019-02-15T02:22:01.080Z,16
2019-02-15T02:23:02.004Z,15
2019-02-15T02:24:01.083Z,14
2019-02-15T02:25:01.082Z,18
2019-02-15T02:26:01.084Z,16
2019-02-15T02:28:01.120Z,17
2019-02-15T02:29:01.081Z,18
2019-02-15T02:30:01.085Z,15
2019-02-15T02:31:01.091Z,16
2019-02-15T02:32:01.085Z,18
2019-02-15T02:34:01.110Z,16
2019-02-15T02:35:01.086Z,20
2019-02-15T02:36:01.134Z,19
2019-02-15T02:37:01.087Z,18
2019-02-15T02:38:01.082Z,19
2019-02-15T02:40:01.085Z,16
2019-02-15T02:42:01.084Z,17
2019-02-15T02:45:01.084Z,18
2019-02-15T02:46:01.087Z,19
2019-02-15T02:47:01.088Z,17
2019-02-15T02:48:01.083Z,16
2019-02-15T02:49:01.083Z,17
2019-02-15T02:50:01.096Z,18
2019-02-15T02:52:01.091Z,17
2019-02-15T02:53:01.100Z,16
2019-02-15T02:54:01.086Z,14
2019-02-15T02:55:06.094Z,12
2019-02-15T02:56:01.100Z,13
2019-02-15T02:58:01.088Z,14
2019-02-15T02:59:02.981Z,15
2019-02-15T03:00:01.085Z,15
2019-02-15T03:02:01.086Z,14
2019-02-15T03:04:01.086Z,13
2019-02-15T03:05:01.113Z,14
2019-02-15T03:06:01.085Z,15
2019-02-15T03:07:01.106Z,16
2019-02-15T03:09:01.098Z,17
2019-02-15T03:11:01.056Z,16
2019-02-15T03:12:01.086Z,18
2019-02-15T03:14:11.039Z,17
2019-02-15T03:15:01.087Z,17
2019-02-15T03:17:01.089Z,15
2019-02-15T03:20:01.090Z,18
2019-02-15T03:22:01.090Z,19
2019-02-15T03:23:01.092Z,21
2019-02-15T03:25:01.126Z,19
2019-02-15T03:26:01.108Z,18
2019-02-15T03:27:01.093Z,16
2019-02-15T03:28:01.089Z,14
2019-02-15T03:30:01.088Z,14
2019-02-15T03:31:01.090Z,15
2019-02-15T03:32:01.093Z,17
2019-02-15T03:33:01.096Z,18
2019-02-15T03:34:01.092Z,17
2019-02-15T03:35:01.141Z,15
2019-02-15T03:38:01.098Z,14
2019-02-15T03:39:01.095Z,16
2019-02-15T03:40:01.135Z,19
2019-02-15T03:45:01.133Z,18
2019-02-15T03:47:01.092Z,16
2019-02-15T03:48:01.094Z,17
2019-02-15T03:52:01.122Z,16
2019-02-15T03:53:01.093Z,15
2019-02-15T03:56:01.127Z,17
2019-02-15T03:57:01.092Z,18
2019-02-15T03:58:01.094Z,20
2019-02-15T03:59:01.105Z,18
2019-02-15T04:00:01.197Z,18
2019-02-15T04:01:01.120Z,16
2019-02-15T04:02:01.097Z,17
2019-02-15T04:03:01.095Z,16
2019-02-15T04:04:01.094Z,17
2019-02-15T04:05:01.136Z,18
2019-02-15T04:06:01.106Z,20
2019-02-15T04:07:01.100Z,19
2019-02-15T04:08:01.110Z,20
2019-02-15T04:09:01.096Z,19
2019-02-15T04:10:01.124Z,18
2019-02-15T04:11:01.106Z,16
2019-02-15T04:13:02.280Z,15
2019-02-15T04:14:01.097Z,16
2019-02-15T04:15:01.113Z,17
2019-02-15T04:17:01.096Z,16
2019-02-15T04:19:01.120Z,15
2019-02-15T04:20:01.105Z,14
2019-02-15T04:21:01.097Z,15
2019-02-15T04:23:01.153Z,16
2019-02-15T04:24:01.097Z,15
2019-02-15T04:25:01.098Z,16
2019-02-15T04:26:01.096Z,15
2019-02-15T04:27:01.094Z,16
2019-02-15T04:28:01.094Z,17
2019-02-15T04:29:01.096Z,18
2019-02-15T04:32:01.080Z,17
2019-02-15T04:33:01.080Z,16
2019-02-15T04:34:01.082Z,15
2019-02-15T04:35:01.083Z,16
2019-02-15T04:36:02.292Z,15
2019-02-15T04:37:01.079Z,17
2019-02-15T04:38:01.647Z,18
2019-02-15T04:39:01.083Z,17
2019-02-15T04:42:01.092Z,15
2019-02-15T04:43:01.091Z,16
2019-02-15T04:44:01.083Z,18
2019-02-15T04:45:01.082Z,17
2019-02-15T04:46:01.775Z,18
2019-02-15T04:47:01.088Z,21
2019-02-15T04:48:01.085Z,20
2019-02-15T04:49:01.082Z,18
2019-02-15T04:50:01.082Z,19
2019-02-15T04:52:01.114Z,18
2019-02-15T04:55:01.082Z,17
2019-02-15T04:56:01.109Z,16
2019-02-15T04:58:01.084Z,17
2019-02-15T05:00:01.085Z,17
2019-02-15T05:01:02.206Z,18
2019-02-15T05:04:01.083Z,19
2019-02-15T05:05:01.114Z,18
2019-02-15T05:07:01.112Z,17
2019-02-15T05:08:01.086Z,18
2019-02-15T05:10:01.084Z,19
2019-02-15T05:11:01.111Z,20
2019-02-15T05:12:01.084Z,19
2019-02-15T05:14:01.086Z,17
2019-02-15T05:15:01.084Z,16
2019-02-15T05:16:01.087Z,15
2019-02-15T05:18:01.086Z,14
2019-02-15T05:19:01.096Z,15
2019-02-15T05:22:01.114Z,14
2019-02-15T05:23:01.092Z,15
2019-02-15T05:27:01.116Z,16
2019-02-15T05:28:01.100Z,15
2019-02-15T05:30:01.162Z,15
2019-02-15T05:32:01.121Z,14
2019-02-15T05:33:01.089Z,15
2019-02-15T05:34:01.089Z,12
2019-02-15T05:35:01.184Z,14
2019-02-15T05:36:01.089Z,15
2019-02-15T05:39:01.117Z,18
2019-02-15T05:40:01.090Z,17
2019-02-15T05:41:01.089Z,15
2019-02-15T05:42:01.091Z,14
2019-02-15T05:43:01.114Z,13
2019-02-15T05:45:03.509Z,12
2019-02-15T05:46:01.099Z,13
2019-02-15T05:47:01.093Z,14
2019-02-15T05:49:01.091Z,15
2019-02-15T05:50:01.092Z,17
2019-02-15T05:51:01.093Z,16
2019-02-15T05:53:01.138Z,17
2019-02-15T05:54:01.090Z,15
2019-02-15T05:55:01.097Z,13
2019-02-15T05:56:01.094Z,14
2019-02-15T05:57:01.093Z,15
2019-02-15T05:59:01.097Z,17
2019-02-15T06:00:01.095Z,20
2019-02-15T06:01:01.471Z,21
2019-02-15T06:02:01.092Z,19
2019-02-15T06:04:01.097Z,17
2019-02-15T06:05:01.094Z,15
2019-02-15T06:06:01.097Z,13
2019-02-15T06:08:01.128Z,11
2019-02-15T06:11:07.038Z,14
2019-02-15T06:12:01.094Z,16
2019-02-15T06:14:01.098Z,17
2019-02-15T06:15:01.095Z,19
2019-02-15T06:16:01.094Z,17
2019-02-15T06:18:01.130Z,18
2019-02-15T06:19:01.093Z,17
2019-02-15T06:20:01.104Z,15
2019-02-15T06:21:01.092Z,16
2019-02-15T06:22:01.093Z,17
2019-02-15T06:23:01.125Z,18
2019-02-15T06:24:01.091Z,19
2019-02-15T06:27:01.092Z,18
2019-02-15T06:28:01.131Z,16
2019-02-15T06:30:01.097Z,18
2019-02-15T06:31:01.090Z,16
2019-02-15T06:32:01.091Z,17
2019-02-15T06:33:01.199Z,19
2019-02-15T06:34:01.092Z,20
2019-02-15T06:35:01.091Z,18
2019-02-15T06:36:01.093Z,20
2019-02-15T06:37:01.091Z,19
2019-02-15T06:38:01.090Z,18
2019-02-15T06:39:01.090Z,17
2019-02-15T06:40:01.091Z,16
2019-02-15T06:42:01.096Z,17
2019-02-15T06:44:01.092Z,16
2019-02-15T06:45:01.096Z,17
2019-02-15T06:46:01.091Z,18
2019-02-15T06:47:01.094Z,17
2019-02-15T06:48:01.126Z,18
2019-02-15T06:49:01.093Z,19
2019-02-15T06:50:01.092Z,18
2019-02-15T06:51:01.091Z,17
2019-02-15T06:52:01.093Z,16
2019-02-15T06:53:01.126Z,15
2019-02-15T06:55:01.092Z,19
2019-02-15T06:58:01.129Z,18
2019-02-15T06:59:01.093Z,17
2019-02-15T07:00:01.094Z,14
2019-02-15T07:01:01.101Z,13
2019-02-15T07:02:01.094Z,16
2019-02-15T07:04:01.092Z,19
2019-02-15T07:05:01.097Z,20
2019-02-15T07:06:01.107Z,21
2019-02-15T07:07:01.093Z,19
2019-02-15T07:08:01.129Z,18
2019-02-15T07:09:01.875Z,15
2019-02-15T07:11:01.096Z,13
2019-02-15T07:12:01.093Z,14
2019-02-15T07:14:01.096Z,16
2019-02-15T07:15:01.102Z,16
2019-02-15T07:16:01.098Z,15
2019-02-15T07:18:01.131Z,13
2019-02-15T07:22:01.096Z,15
2019-02-15T07:23:06.104Z,16
2019-02-15T07:24:01.097Z,17
2019-02-15T07:25:01.099Z,18
2019-02-15T07:26:01.100Z,19
2019-02-15T07:27:01.098Z,17
2019-02-15T07:29:01.084Z,19
2019-02-15T07:30:01.081Z,19
2019-02-15T07:31:01.081Z,20
2019-02-15T07:32:01.082Z,19
2019-02-15T07:33:01.085Z,21
2019-02-15T07:34:01.081Z,19
2019-02-15T07:38:01.085Z,18
2019-02-15T07:40:01.086Z,16
2019-02-15T07:41:01.082Z,15
2019-02-15T07:43:01.083Z,16
2019-02-15T07:45:01.091Z,16
2019-02-15T07:46:01.086Z,14
2019-02-15T07:47:01.087Z,16
2019-02-15T07:48:01.080Z,15
2019-02-15T07:49:01.683Z,14
2019-02-15T07:50:01.090Z,15
2019-02-15T07:51:09.246Z,14
2019-02-15T07:52:01.087Z,15
2019-02-15T07:54:01.086Z,17
2019-02-15T07:55:01.083Z,16
2019-02-15T07:56:01.086Z,17
2019-02-15T07:59:01.087Z,16
2019-02-15T08:00:01.787Z,16
2019-02-15T08:02:02.174Z,15
2019-02-15T08:05:01.091Z,17
2019-02-15T08:06:01.088Z,16
2019-02-15T08:07:01.098Z,19
2019-02-15T08:08:01.090Z,20
2019-02-15T08:10:01.088Z,17
2019-02-15T08:11:01.089Z,18
2019-02-15T08:12:01.088Z,16
2019-02-15T08:13:01.090Z,14
2019-02-15T08:14:01.088Z,15
2019-02-15T08:15:01.093Z,17
2019-02-15T08:16:02.760Z,16
2019-02-15T08:17:01.088Z,18
2019-02-15T08:18:01.139Z,20
2019-02-15T08:19:01.091Z,17
2019-02-15T08:20:01.092Z,16
2019-02-15T08:21:01.098Z,17
2019-02-15T08:22:01.092Z,16
2019-02-15T08:23:01.125Z,15
2019-02-15T08:24:01.091Z,16
2019-02-15T08:25:02.819Z,17
2019-02-15T08:26:01.093Z,16
2019-02-15T08:29:01.092Z,17
2019-02-15T08:30:01.098Z,16
2019-02-15T08:32:01.090Z,17
2019-02-15T08:33:01.088Z,16
2019-02-15T08:34:01.132Z,15
2019-02-15T08:35:01.093Z,18
2019-02-15T08:36:01.088Z,20
2019-02-15T08:37:01.089Z,19
2019-02-15T08:38:01.089Z,21
2019-02-15T08:39:01.124Z,22
2019-02-15T08:40:01.092Z,21
2019-02-15T08:41:01.089Z,19
2019-02-15T08:43:01.088Z,18
2019-02-15T08:44:01.089Z,16
2019-02-15T08:45:06.089Z,15
2019-02-15T08:46:03.209Z,17
2019-02-15T08:49:01.890Z,16
2019-02-15T08:51:01.094Z,15
2019-02-15T08:53:01.115Z,14
2019-02-15T08:54:02.117Z,16
2019-02-15T08:56:01.093Z,17
2019-02-15T08:57:01.093Z,15
2019-02-15T08:59:02.024Z,13
2019-02-15T09:00:01.108Z,13
2019-02-15T09:01:01.118Z,14
2019-02-15T09:03:01.092Z,15
2019-02-15T09:06:01.123Z,14
2019-02-15T09:07:01.094Z,15
2019-02-15T09:08:01.103Z,16
2019-02-15T09:11:02.371Z,15
2019-02-15T09:12:01.096Z,14
2019-02-15T09:15:01.229Z,14
2019-02-15T09:16:09.779Z,15
2019-02-15T09:17:01.099Z,18
2019-02-15T09:21:01.083Z,19
2019-02-15T09:23:01.109Z,16
2019-02-15T09:24:01.083Z,17
2019-02-15T09:25:01.086Z,16
2019-02-15T09:26:01.086Z,15
2019-02-15T09:28:01.126Z,16
2019-02-15T09:29:01.086Z,14
2019-02-15T09:30:01.094Z,16
2019-02-15T09:31:01.088Z,15
2019-02-15T09:32:01.118Z,16
2019-02-15T09:35:01.090Z,15
2019-02-15T09:37:01.122Z,16
2019-02-15T09:38:01.089Z,17
2019-02-15T09:39:01.095Z,19
2019-02-15T09:40:01.091Z,20
2019-02-15T09:41:01.090Z,21
2019-02-15T09:42:01.086Z,18
2019-02-15T09:44:03.232Z,16
2019-02-15T09:45:01.089Z,16
2019-02-15T09:46:01.094Z,14
2019-02-15T09:47:01.090Z,16
2019-02-15T09:48:01.115Z,18
2019-02-15T09:51:01.092Z,17
2019-02-15T09:53:01.141Z,13
2019-02-15T09:55:01.096Z,14
2019-02-15T09:56:01.123Z,16
2019-02-15T09:57:01.093Z,15
2019-02-15T10:00:01.123Z,14
2019-02-15T10:03:01.094Z,16
2019-02-15T10:04:02.144Z,15
2019-02-15T10:05:01.094Z,16
2019-02-15T10:06:01.094Z,17
2019-02-15T10:07:01.096Z,19
2019-02-15T10:09:01.121Z,17
2019-02-15T10:11:01.094Z,16
2019-02-15T10:12:01.095Z,12
2019-02-15T10:15:01.136Z,13
2019-02-15T10:17:02.124Z,15
2019-02-15T10:18:01.096Z,16
2019-02-15T10:20:01.121Z,18
2019-02-15T10:21:01.094Z,17
2019-02-15T10:22:01.098Z,19
2019-02-15T10:23:01.115Z,18
2019-02-15T10:24:02.154Z,17
2019-02-15T10:26:01.095Z,16
2019-02-15T10:27:01.096Z,15
2019-02-15T10:28:01.095Z,17
2019-02-15T10:29:01.136Z,18
2019-02-15T10:30:02.521Z,16
2019-02-15T10:33:01.098Z,15
2019-02-15T10:35:01.139Z,18
2019-02-15T10:37:01.103Z,17
2019-02-15T10:38:01.096Z,18
2019-02-15T10:39:01.095Z,16
2019-02-15T10:41:01.100Z,15
2019-02-15T10:44:01.101Z,16
2019-02-15T10:45:01.164Z,15
2019-02-15T10:46:01.099Z,18
2019-02-15T10:50:01.151Z,19
2019-02-15T10:51:01.098Z,17
2019-02-15T10:52:01.103Z,16
2019-02-15T10:54:01.099Z,15
2019-02-15T10:55:01.143Z,13
2019-02-15T10:56:01.102Z,15
2019-02-15T10:59:01.101Z,16
2019-02-15T11:00:01.140Z,16
2019-02-15T11:01:01.101Z,14
2019-02-15T11:02:01.105Z,15
2019-02-15T11:03:01.103Z,13
2019-02-15T11:04:01.101Z,16
2019-02-15T11:08:01.100Z,18
2019-02-15T11:09:01.099Z,15
2019-02-15T11:11:01.099Z,16
2019-02-15T11:12:01.103Z,17
2019-02-15T11:13:01.099Z,16
2019-02-15T11:14:01.107Z,18
2019-02-15T11:15:01.136Z,18
2019-02-15T11:17:02.992Z,17
2019-02-15T11:19:01.106Z,16
2019-02-15T11:20:01.134Z,15
2019-02-15T11:24:01.099Z,16
2019-02-15T11:26:01.103Z,15
2019-02-15T11:27:01.103Z,16
2019-02-15T11:29:01.117Z,17
2019-02-15T11:30:01.105Z,16
2019-02-15T11:31:01.104Z,15
2019-02-15T11:33:01.098Z,16
2019-02-15T11:34:01.099Z,14
2019-02-15T11:35:01.103Z,15
2019-02-15T11:36:01.176Z,16
2019-02-15T11:37:01.096Z,15
2019-02-15T11:38:01.099Z,14
2019-02-15T11:39:01.101Z,15
2019-02-15T11:41:01.098Z,16
2019-02-15T11:42:01.098Z,15
2019-02-15T11:43:01.098Z,14
2019-02-15T11:44:01.098Z,17
2019-02-15T11:45:01.102Z,17
2019-02-15T11:46:01.100Z,18
2019-02-15T11:47:01.099Z,19
2019-02-15T11:48:01.105Z,21
2019-02-15T11:49:01.098Z,20
2019-02-15T11:50:01.104Z,19
2019-02-15T11:52:01.099Z,18
2019-02-15T11:53:01.126Z,17
2019-02-15T11:55:01.097Z,16
2019-02-15T11:56:01.082Z,17
2019-02-15T12:00:01.109Z,18
2019-02-15T12:01:01.082Z,17
2019-02-15T12:02:05.986Z,18
2019-02-15T12:03:01.114Z,19
2019-02-15T12:04:01.082Z,18
2019-02-15T12:05:01.089Z,17
2019-02-15T12:06:01.089Z,16
2019-02-15T12:07:01.093Z,17
2019-02-15T12:11:01.083Z,18
2019-02-15T12:12:10.106Z,15
2019-02-15T12:14:01.116Z,16
2019-02-15T12:15:01.087Z,16
2019-02-15T12:16:01.139Z,17
2019-02-15T12:20:01.116Z,16
2019-02-15T12:21:01.088Z,13
2019-02-15T12:22:01.087Z,14
2019-02-15T12:24:01.113Z,15
2019-02-15T12:25:01.088Z,16
2019-02-15T12:26:01.091Z,18
2019-02-15T12:27:01.085Z,20
2019-02-15T12:29:01.113Z,19
2019-02-15T12:30:01.087Z,18
2019-02-15T12:33:01.087Z,17
2019-02-15T12:34:01.117Z,18
2019-02-15T12:36:01.086Z,17
2019-02-15T12:39:01.116Z,16
2019-02-15T12:40:02.155Z,18
2019-02-15T12:42:01.085Z,19
2019-02-15T12:43:01.122Z,20
2019-02-15T12:45:01.118Z,19
2019-02-15T12:46:01.087Z,20
2019-02-15T12:47:01.086Z,17
2019-02-15T12:52:01.090Z,19
2019-02-15T12:53:01.090Z,18
2019-02-15T12:54:01.090Z,19
2019-02-15T12:57:01.091Z,17
2019-02-15T12:58:01.093Z,18
2019-02-15T12:59:02.116Z,16
2019-02-15T13:00:01.140Z,15
2019-02-15T13:01:01.089Z,17
2019-02-15T13:02:01.091Z,18
2019-02-15T13:03:01.784Z,17
2019-02-15T13:04:01.093Z,18
2019-02-15T13:05:01.091Z,17
2019-02-15T13:06:01.117Z,16
2019-02-15T13:07:01.095Z,15
2019-02-15T13:08:01.092Z,17
2019-02-15T13:09:01.091Z,18
2019-02-15T13:12:01.095Z,19
2019-02-15T13:13:01.099Z,17
2019-02-15T13:14:01.092Z,16
2019-02-15T13:15:01.094Z,16
2019-02-15T13:18:01.099Z,17
2019-02-15T13:19:01.109Z,18
2019-02-15T13:21:01.122Z,19
2019-02-15T13:23:01.102Z,17
2019-02-15T13:24:01.094Z,16
2019-02-15T13:27:01.098Z,14
2019-02-15T13:29:01.100Z,16
2019-02-15T13:30:01.101Z,17
2019-02-15T13:32:01.097Z,18
2019-02-15T13:33:01.099Z,19
2019-02-15T13:34:01.099Z,18
2019-02-15T13:36:01.099Z,20
2019-02-15T13:37:01.141Z,19
2019-02-15T13:38:01.099Z,18
2019-02-15T13:40:01.083Z,17
2019-02-15T13:41:01.081Z,15
2019-02-15T13:42:01.110Z,14
2019-02-15T13:44:02.112Z,15
2019-02-15T13:45:01.140Z,17
2019-02-15T13:48:01.126Z,18
2019-02-15T13:51:01.085Z,20
2019-02-15T13:52:01.089Z,19
2019-02-15T13:53:01.083Z,18
2019-02-15T13:55:01.112Z,16
2019-02-15T13:56:01.085Z,17
2019-02-15T14:00:01.125Z,17
2019-02-15T14:01:01.082Z,15
2019-02-15T14:02:01.085Z,17
2019-02-15T14:04:01.090Z,18
2019-02-15T14:05:01.084Z,19
2019-02-15T14:06:01.087Z,18
2019-02-15T14:07:01.083Z,17
2019-02-15T14:10:01.088Z,16
2019-02-15T14:11:01.088Z,18
2019-02-15T14:15:01.104Z,17
2019-02-15T14:16:02.018Z,15
2019-02-15T14:17:01.089Z,16
2019-02-15T14:19:01.085Z,15
2019-02-15T14:20:01.085Z,16
2019-02-15T14:21:01.085Z,17
2019-02-15T14:22:01.086Z,14
2019-02-15T14:23:01.088Z,15
2019-02-15T14:24:01.085Z,16
2019-02-15T14:25:01.094Z,17
2019-02-15T14:26:01.090Z,16
2019-02-15T14:27:01.088Z,18
2019-02-15T14:29:01.101Z,16
2019-02-15T14:30:01.090Z,16
2019-02-15T14:31:01.091Z,15
2019-02-15T14:32:01.092Z,14
2019-02-15T14:33:01.096Z,13
2019-02-15T14:34:01.098Z,15
2019-02-15T14:36:01.088Z,16
2019-02-15T14:37:01.090Z,18
2019-02-15T14:38:01.090Z,19
2019-02-15T14:39:01.170Z,20
2019-02-15T14:42:01.093Z,19
2019-02-15T14:43:01.093Z,17
2019-02-15T14:44:01.092Z,18
2019-02-15T14:45:01.101Z,18
2019-02-15T14:46:01.091Z,19
2019-02-15T14:47:01.089Z,20
2019-02-15T14:49:01.094Z,17
2019-02-15T14:50:01.095Z,18
2019-02-15T14:51:01.090Z,15
2019-02-15T14:52:01.115Z,14
2019-02-15T14:53:01.090Z,15
2019-02-15T14:54:01.192Z,16
2019-02-15T14:55:01.090Z,15
2019-02-15T14:56:01.104Z,14
2019-02-15T14:57:01.117Z,15
2019-02-15T14:58:01.091Z,13
2019-02-15T14:59:01.091Z,14
2019-02-15T15:00:01.137Z,14
2019-02-15T15:01:01.104Z,16
2019-02-15T15:02:01.137Z,17
2019-02-15T15:05:01.091Z,16
2019-02-15T15:07:01.125Z,14
2019-02-15T15:09:01.092Z,15
2019-02-15T15:10:01.093Z,14
2019-02-15T15:14:01.093Z,15
2019-02-15T15:15:01.097Z,16
2019-02-15T15:17:01.136Z,18
2019-02-15T15:19:01.104Z,16
2019-02-15T15:21:01.094Z,17
2019-02-15T15:25:01.096Z,19
2019-02-15T15:26:01.099Z,18
2019-02-15T15:27:01.128Z,17
2019-02-15T15:28:01.101Z,16
2019-02-15T15:29:01.095Z,15
2019-02-15T15:30:01.098Z,15
2019-02-15T15:32:01.134Z,17
2019-02-15T15:35:01.078Z,20
2019-02-15T15:37:01.080Z,21
2019-02-15T15:38:01.096Z,20
2019-02-15T15:39:01.079Z,19
2019-02-15T15:40:01.079Z,17
2019-02-15T15:41:01.078Z,16
2019-02-15T15:42:01.078Z,17
2019-02-15T15:43:01.079Z,16
2019-02-15T15:44:01.084Z,17
2019-02-15T15:45:01.079Z,18
2019-02-15T15:46:01.081Z,19
2019-02-15T15:47:01.086Z,18
2019-02-15T15:48:01.096Z,16
2019-02-15T15:49:01.081Z,15
2019-02-15T15:50:01.095Z,16
2019-02-15T15:52:01.098Z,17
2019-02-15T15:55:01.082Z,16
2019-02-15T15:58:01.086Z,17
2019-02-15T15:59:01.084Z,18
2019-02-15T16:00:01.085Z,18
2019-02-15T16:01:01.085Z,17
2019-02-15T16:02:01.119Z,16
2019-02-15T16:04:01.088Z,18
2019-02-15T16:05:01.087Z,17
2019-02-15T16:06:01.087Z,19
2019-02-15T16:07:01.089Z,18
2019-02-15T16:10:01.103Z,17
2019-02-15T16:11:01.089Z,16
2019-02-15T16:12:01.089Z,17
2019-02-15T16:13:01.089Z,16
2019-02-15T16:15:01.095Z,16
2019-02-15T16:17:01.088Z,15
2019-02-15T16:18:01.089Z,17
2019-02-15T16:19:01.090Z,16
2019-02-15T16:20:01.090Z,17
2019-02-15T16:23:01.092Z,15
2019-02-15T16:24:12.267Z,16
2019-02-15T16:25:01.092Z,17
2019-02-15T16:26:01.100Z,18
2019-02-15T16:27:01.134Z,19
2019-02-15T16:28:01.091Z,18
2019-02-15T16:29:01.091Z,17
2019-02-15T16:30:01.091Z,17
2019-02-15T16:31:01.104Z,16
2019-02-15T16:34:01.092Z,18
2019-02-15T16:35:01.091Z,17
2019-02-15T16:40:01.092Z,16
2019-02-15T16:44:01.095Z,15
2019-02-15T16:45:01.096Z,15
2019-02-15T16:46:01.096Z,16
2019-02-15T16:50:01.094Z,17
2019-02-15T16:52:01.118Z,16
2019-02-15T16:53:01.092Z,17
2019-02-15T16:55:01.094Z,16
2019-02-15T17:00:01.100Z,17
2019-02-15T17:01:01.096Z,18
2019-02-15T17:02:01.121Z,17
2019-02-15T17:03:01.753Z,15
2019-02-15T17:04:01.098Z,14
2019-02-15T17:06:01.098Z,12
2019-02-15T17:07:01.095Z,14
2019-02-15T17:08:01.113Z,15
2019-02-15T17:10:01.122Z,17
2019-02-15T17:11:01.099Z,18
2019-02-15T17:13:01.096Z,20
2019-02-15T17:14:01.100Z,19
2019-02-15T17:15:06.103Z,17
2019-02-15T17:16:01.098Z,18
2019-02-15T17:17:01.102Z,17
2019-02-15T17:18:01.103Z,16
2019-02-15T17:20:06.102Z,17
2019-02-15T17:21:01.099Z,18
2019-02-15T17:24:01.084Z,17
2019-02-15T17:26:01.084Z,16
2019-02-15T17:28:01.083Z,17
2019-02-15T17:29:01.085Z,16
2019-02-15T17:30:01.816Z,18
2019-02-15T17:32:01.084Z,16
2019-02-15T17:36:01.117Z,15
2019-02-15T17:38:01.084Z,14
2019-02-15T17:39:01.085Z,15
2019-02-15T17:40:01.087Z,13
2019-02-15T17:41:01.115Z,14
2019-02-15T17:42:01.089Z,15
2019-02-15T17:43:01.091Z,16
2019-02-15T17:45:01.087Z,16
2019-02-15T17:47:01.139Z,17
2019-02-15T17:48:01.087Z,18
2019-02-15T17:49:02.924Z,19
2019-02-15T17:50:01.088Z,20
2019-02-15T17:52:01.087Z,19
2019-02-15T17:54:01.088Z,18
2019-02-15T17:59:01.090Z,17
2019-02-15T18:00:01.093Z,15
2019-02-15T18:01:01.129Z,16
2019-02-15T18:02:01.091Z,19
2019-02-15T18:03:01.092Z,18
2019-02-15T18:04:01.089Z,19
2019-02-15T18:05:01.089Z,18
2019-02-15T18:07:01.090Z,14
2019-02-15T18:08:01.098Z,17
2019-02-15T18:10:01.090Z,18
2019-02-15T18:12:01.089Z,17
2019-02-15T18:13:01.089Z,15
2019-02-15T18:15:01.210Z,15
2019-02-15T18:16:01.093Z,14
2019-02-15T18:17:01.092Z,16
2019-02-15T18:19:09.616Z,17
2019-02-15T18:20:01.095Z,19
2019-02-15T18:21:01.088Z,18
2019-02-15T18:22:02.947Z,19
2019-02-15T18:23:01.089Z,20
2019-02-15T18:24:01.088Z,18
2019-02-15T18:25:01.088Z,16
2019-02-15T18:26:01.088Z,18
2019-02-15T18:29:01.089Z,19
2019-02-15T18:30:01.099Z,18
2019-02-15T18:31:01.090Z,17
2019-02-15T18:32:01.090Z,15
2019-02-15T18:33:01.117Z,14
2019-02-15T18:34:01.093Z,13
2019-02-15T18:35:01.096Z,14
2019-02-15T18:39:02.074Z,15
2019-02-15T18:40:01.091Z,14
2019-02-15T18:43:01.130Z,13
2019-02-15T18:44:01.092Z,16
2019-02-15T18:45:01.093Z,16
2019-02-15T18:46:01.092Z,18
2019-02-15T18:47:01.095Z,19
2019-02-15T18:49:01.092Z,17
2019-02-15T18:50:01.095Z,16
2019-02-15T18:51:01.097Z,13
2019-02-15T18:55:01.121Z,12
2019-02-15T18:56:01.093Z,13
2019-02-15T18:58:02.379Z,14
2019-02-15T18:59:01.119Z,15
2019-02-15T19:00:01.099Z,16
2019-02-15T19:01:01.093Z,17
2019-02-15T19:02:01.094Z,15
2019-02-15T19:03:01.097Z,17
2019-02-15T19:07:01.106Z,16
2019-02-15T19:08:01.078Z,17
2019-02-15T19:09:01.115Z,16
2019-02-15T19:11:01.081Z,15
2019-02-15T19:14:01.079Z,14
2019-02-15T19:15:01.108Z,12
2019-02-15T19:16:01.080Z,13
2019-02-15T19:17:01.082Z,15
2019-02-15T19:19:01.080Z,16
2019-02-15T19:20:01.105Z,17
2019-02-15T19:22:01.083Z,16
2019-02-15T19:25:01.105Z,18
2019-02-15T19:27:01.083Z,17
2019-02-15T19:28:01.078Z,18
2019-02-15T19:29:01.079Z,15
2019-02-15T19:30:01.111Z,16
2019-02-15T19:31:01.083Z,14
2019-02-15T19:32:01.088Z,15
2019-02-15T19:34:01.082Z,16
2019-02-15T19:36:01.107Z,17
2019-02-15T19:37:01.083Z,16
2019-02-15T19:38:01.458Z,17
2019-02-15T19:40:01.081Z,15
2019-02-15T19:44:01.083Z,17
2019-02-15T19:45:01.082Z,18
2019-02-15T19:46:01.083Z,17
2019-02-15T19:47:01.084Z,18
2019-02-15T19:49:01.083Z,17
2019-02-15T19:50:01.086Z,15
2019-02-15T19:51:01.108Z,17
2019-02-15T19:57:01.110Z,15
2019-02-15T19:59:01.083Z,14
2019-02-15T20:00:01.086Z,14
2019-02-15T20:01:01.114Z,12
2019-02-15T20:02:01.091Z,13
2019-02-15T20:03:01.087Z,14
2019-02-15T20:04:01.085Z,15
2019-02-15T20:05:01.083Z,16
2019-02-15T20:06:01.119Z,18
2019-02-15T20:09:01.083Z,19
2019-02-15T20:10:01.082Z,18
2019-02-15T20:11:01.085Z,17
2019-02-15T20:13:01.081Z,18
2019-02-15T20:14:01.083Z,17
2019-02-15T20:15:01.091Z,18
2019-02-15T20:16:01.082Z,19
2019-02-15T20:17:01.086Z,20
2019-02-15T20:18:01.108Z,19
2019-02-15T20:20:03.253Z,17
2019-02-15T20:21:01.082Z,15
2019-02-15T20:22:01.083Z,14
2019-02-15T20:24:01.082Z,15
2019-02-15T20:25:01.082Z,16
2019-02-15T20:26:01.083Z,17
2019-02-15T20:27:01.118Z,16
2019-02-15T20:28:01.086Z,18
2019-02-15T20:29:01.083Z,17
2019-02-15T20:30:03.105Z,16
2019-02-15T20:32:01.084Z,18
2019-02-15T20:33:01.083Z,15
2019-02-15T20:35:01.086Z,16
2019-02-15T20:36:01.091Z,14